sensor_id;sensor_type;location;lat;lon;timestamp;pressure;altitude;pressure_sealevel;temperature;humidity
70198;BME280;57582;-34.876;138.628;2023-03-14T00:02:54;100904;;;23.88;39.68
70198;BME280;57582;-34.876;138.628;2023-03-14T00:05:53;100897;;;24.00;39.18
70198;BME280;57582;-34.876;138.628;2023-03-14T00:08:53;100905;;;24.21;39.53
70198;BME280;57582;-34.876;138.628;2023-03-14T00:11:53;100908;;;24.40;38.12
70198;BME280;57582;-34.876;138.628;2023-03-14T00:14:54;100905;;;24.43;38.20
70198;BME280;57582;-34.876;138.628;2023-03-14T00:17:53;100907;;;24.53;37.63
70198;BME280;57582;-34.876;138.628;2023-03-14T00:20:53;100896;;;24.73;37.08
70198;BME280;57582;-34.876;138.628;2023-03-14T00:23:53;100892;;;24.84;36.75
70198;BME280;57582;-34.876;138.628;2023-03-14T00:26:53;100897;;;24.87;36.49
70198;BME280;57582;-34.876;138.628;2023-03-14T00:29:53;100894;;;24.63;34.98
70198;BME280;57582;-34.876;138.628;2023-03-14T00:32:53;100881;;;24.53;36.72
70198;BME280;57582;-34.876;138.628;2023-03-14T00:35:54;100882;;;24.46;37.86
70198;BME280;57582;-34.876;138.628;2023-03-14T00:38:54;100898;;;24.56;35.88
70198;BME280;57582;-34.876;138.628;2023-03-14T00:41:53;100902;;;24.70;36.03
70198;BME280;57582;-34.876;138.628;2023-03-14T00:44:53;100917;;;24.94;35.79
70198;BME280;57582;-34.876;138.628;2023-03-14T00:47:53;100916;;;25.06;35.73
70198;BME280;57582;-34.876;138.628;2023-03-14T00:50:54;100912;;;25.23;35.33
70198;BME280;57582;-34.876;138.628;2023-03-14T00:53:53;100910;;;25.30;34.62
70198;BME280;57582;-34.876;138.628;2023-03-14T00:56:53;100910;;;25.36;35.06
70198;BME280;57582;-34.876;138.628;2023-03-14T00:59:53;100908;;;25.40;34.93
70198;BME280;57582;-34.876;138.628;2023-03-14T01:02:53;100897;;;25.50;34.71
70198;BME280;57582;-34.876;138.628;2023-03-14T01:05:53;100909;;;25.59;35.15
70198;BME280;57582;-34.876;138.628;2023-03-14T01:08:54;100901;;;25.71;34.57
70198;BME280;57582;-34.876;138.628;2023-03-14T01:11:53;100901;;;25.76;34.44
70198;BME280;57582;-34.876;138.628;2023-03-14T01:14:53;100907;;;25.88;34.60
70198;BME280;57582;-34.876;138.628;2023-03-14T01:17:53;100902;;;26.15;33.91
70198;BME280;57582;-34.876;138.628;2023-03-14T01:20:53;100899;;;26.43;33.41
70198;BME280;57582;-34.876;138.628;2023-03-14T01:23:54;100889;;;26.59;32.59
70198;BME280;57582;-34.876;138.628;2023-03-14T01:26:54;100892;;;26.64;32.29
70198;BME280;57582;-34.876;138.628;2023-03-14T01:29:53;100888;;;26.67;32.18
70198;BME280;57582;-34.876;138.628;2023-03-14T01:32:53;100893;;;26.72;32.30
70198;BME280;57582;-34.876;138.628;2023-03-14T01:35:53;100873;;;26.73;32.42
70198;BME280;57582;-34.876;138.628;2023-03-14T01:38:54;100875;;;26.05;32.04
70198;BME280;57582;-34.876;138.628;2023-03-14T01:41:53;100873;;;25.99;32.31
70198;BME280;57582;-34.876;138.628;2023-03-14T01:44:54;100872;;;26.07;32.41
70198;BME280;57582;-34.876;138.628;2023-03-14T01:47:53;100865;;;26.11;32.01
70198;BME280;57582;-34.876;138.628;2023-03-14T01:50:54;100858;;;26.02;32.60
70198;BME280;57582;-34.876;138.628;2023-03-14T01:53:54;100863;;;26.08;32.71
70198;BME280;57582;-34.876;138.628;2023-03-14T01:56:55;100854;;;26.10;32.60
70198;BME280;57582;-34.876;138.628;2023-03-14T01:59:56;100851;;;26.09;32.63
70198;BME280;57582;-34.876;138.628;2023-03-14T02:02:55;100835;;;26.08;32.71
70198;BME280;57582;-34.876;138.628;2023-03-14T02:05:53;100830;;;26.10;32.13
70198;BME280;57582;-34.876;138.628;2023-03-14T02:08:53;100829;;;26.19;31.97
70198;BME280;57582;-34.876;138.628;2023-03-14T02:11:53;100826;;;26.34;32.76
70198;BME280;57582;-34.876;138.628;2023-03-14T02:14:53;100815;;;26.59;32.01
70198;BME280;57582;-34.876;138.628;2023-03-14T02:17:53;100813;;;26.77;31.78
70198;BME280;57582;-34.876;138.628;2023-03-14T02:20:57;100814;;;26.97;31.25
70198;BME280;57582;-34.876;138.628;2023-03-14T02:29:58;100797;;;27.27;30.88
70198;BME280;57582;-34.876;138.628;2023-03-14T02:32:56;100788;;;27.25;30.54
70198;BME280;57582;-34.876;138.628;2023-03-14T02:35:55;100787;;;27.28;30.38
70198;BME280;57582;-34.876;138.628;2023-03-14T02:39:07;100782;;;26.94;29.53
70198;BME280;57582;-34.876;138.628;2023-03-14T02:41:53;100793;;;27.05;29.93
70198;BME280;57582;-34.876;138.628;2023-03-14T02:44:54;100798;;;27.21;30.64
70198;BME280;57582;-34.876;138.628;2023-03-14T02:47:54;100790;;;27.46;31.02
70198;BME280;57582;-34.876;138.628;2023-03-14T02:50:54;100799;;;27.69;33.27
70198;BME280;57582;-34.876;138.628;2023-03-14T02:53:53;100783;;;27.77;34.18
70198;BME280;57582;-34.876;138.628;2023-03-14T02:56:53;100790;;;27.72;33.98
70198;BME280;57582;-34.876;138.628;2023-03-14T02:59:53;100781;;;27.51;34.15
70198;BME280;57582;-34.876;138.628;2023-03-14T03:02:54;100780;;;27.47;34.32
70198;BME280;57582;-34.876;138.628;2023-03-14T03:05:54;100774;;;27.45;34.06
70198;BME280;57582;-34.876;138.628;2023-03-14T03:08:53;100769;;;27.51;33.78
70198;BME280;57582;-34.876;138.628;2023-03-14T03:11:53;100761;;;27.59;33.90
70198;BME280;57582;-34.876;138.628;2023-03-14T03:14:54;100765;;;27.77;33.76
70198;BME280;57582;-34.876;138.628;2023-03-14T03:17:53;100755;;;28.01;32.60
70198;BME280;57582;-34.876;138.628;2023-03-14T03:20:53;100760;;;28.19;33.17
70198;BME280;57582;-34.876;138.628;2023-03-14T03:23:53;100760;;;28.29;33.00
70198;BME280;57582;-34.876;138.628;2023-03-14T03:26:54;100760;;;28.31;33.81
70198;BME280;57582;-34.876;138.628;2023-03-14T03:29:53;100763;;;28.33;34.12
70198;BME280;57582;-34.876;138.628;2023-03-14T03:32:53;100747;;;28.41;33.91
70198;BME280;57582;-34.876;138.628;2023-03-14T03:35:53;100745;;;28.57;33.47
70198;BME280;57582;-34.876;138.628;2023-03-14T03:38:54;100756;;;28.70;33.67
70198;BME280;57582;-34.876;138.628;2023-03-14T03:41:53;100746;;;28.82;32.53
70198;BME280;57582;-34.876;138.628;2023-03-14T03:44:53;100748;;;28.81;32.78
70198;BME280;57582;-34.876;138.628;2023-03-14T03:47:53;100746;;;28.85;29.97
70198;BME280;57582;-34.876;138.628;2023-03-14T03:50:53;100747;;;28.80;30.06
70198;BME280;57582;-34.876;138.628;2023-03-14T03:53:53;100744;;;28.94;29.88
70198;BME280;57582;-34.876;138.628;2023-03-14T03:56:53;100738;;;28.92;29.08
70198;BME280;57582;-34.876;138.628;2023-03-14T03:59:53;100730;;;28.89;29.48
70198;BME280;57582;-34.876;138.628;2023-03-14T04:02:54;100732;;;28.83;29.81
70198;BME280;57582;-34.876;138.628;2023-03-14T04:06:01;100731;;;28.96;29.25
70198;BME280;57582;-34.876;138.628;2023-03-14T04:08:53;100729;;;29.15;29.22
70198;BME280;57582;-34.876;138.628;2023-03-14T04:11:53;100727;;;29.17;28.82
70198;BME280;57582;-34.876;138.628;2023-03-14T04:14:54;100721;;;29.10;28.63
70198;BME280;57582;-34.876;138.628;2023-03-14T04:17:57;100728;;;29.21;28.59
70198;BME280;57582;-34.876;138.628;2023-03-14T04:20:54;100725;;;29.29;28.04
70198;BME280;57582;-34.876;138.628;2023-03-14T04:23:53;100723;;;29.21;28.67
70198;BME280;57582;-34.876;138.628;2023-03-14T04:26:54;100724;;;29.32;27.49
70198;BME280;57582;-34.876;138.628;2023-03-14T04:29:53;100725;;;29.39;28.58
70198;BME280;57582;-34.876;138.628;2023-03-14T04:32:53;100725;;;29.60;28.19
70198;BME280;57582;-34.876;138.628;2023-03-14T04:35:54;100705;;;29.75;27.92
70198;BME280;57582;-34.876;138.628;2023-03-14T04:38:54;100699;;;29.76;28.26
70198;BME280;57582;-34.876;138.628;2023-03-14T04:41:53;100688;;;29.95;28.10
70198;BME280;57582;-34.876;138.628;2023-03-14T04:44:53;100700;;;29.95;26.35
70198;BME280;57582;-34.876;138.628;2023-03-14T04:47:53;100683;;;30.12;25.86
70198;BME280;57582;-34.876;138.628;2023-03-14T04:50:54;100681;;;30.22;25.97
70198;BME280;57582;-34.876;138.628;2023-03-14T04:53:53;100670;;;30.24;24.56
70198;BME280;57582;-34.876;138.628;2023-03-14T04:56:53;100674;;;30.35;24.00
70198;BME280;57582;-34.876;138.628;2023-03-14T04:59:53;100676;;;30.55;23.78
70198;BME280;57582;-34.876;138.628;2023-03-14T05:02:54;100687;;;30.58;24.88
70198;BME280;57582;-34.876;138.628;2023-03-14T05:05:53;100687;;;30.62;22.89
70198;BME280;57582;-34.876;138.628;2023-03-14T05:08:53;100686;;;30.39;22.26
70198;BME280;57582;-34.876;138.628;2023-03-14T05:11:53;100693;;;30.37;21.53
70198;BME280;57582;-34.876;138.628;2023-03-14T05:14:54;100694;;;30.27;23.18
70198;BME280;57582;-34.876;138.628;2023-03-14T05:17:53;100694;;;30.36;21.91
70198;BME280;57582;-34.876;138.628;2023-03-14T05:20:53;100699;;;30.28;22.34
70198;BME280;57582;-34.876;138.628;2023-03-14T05:23:53;100688;;;30.25;24.21
70198;BME280;57582;-34.876;138.628;2023-03-14T05:26:54;100695;;;30.18;25.05
70198;BME280;57582;-34.876;138.628;2023-03-14T05:29:53;100688;;;30.08;26.25
70198;BME280;57582;-34.876;138.628;2023-03-14T05:32:53;100671;;;30.12;26.22
70198;BME280;57582;-34.876;138.628;2023-03-14T05:35:53;100678;;;30.19;26.54
70198;BME280;57582;-34.876;138.628;2023-03-14T05:38:54;100674;;;30.17;26.66
70198;BME280;57582;-34.876;138.628;2023-03-14T05:41:53;100671;;;30.17;24.89
70198;BME280;57582;-34.876;138.628;2023-03-14T05:44:53;100672;;;30.14;25.20
70198;BME280;57582;-34.876;138.628;2023-03-14T05:47:54;100658;;;30.02;25.04
70198;BME280;57582;-34.876;138.628;2023-03-14T05:50:55;100671;;;29.91;24.65
70198;BME280;57582;-34.876;138.628;2023-03-14T05:53:53;100675;;;29.92;24.57
70198;BME280;57582;-34.876;138.628;2023-03-14T05:56:53;100669;;;29.96;24.13
70198;BME280;57582;-34.876;138.628;2023-03-14T05:59:54;100667;;;30.00;21.29
70198;BME280;57582;-34.876;138.628;2023-03-14T06:02:54;100657;;;29.86;22.51
70198;BME280;57582;-34.876;138.628;2023-03-14T06:05:53;100658;;;29.91;20.48
70198;BME280;57582;-34.876;138.628;2023-03-14T06:08:53;100651;;;29.99;23.08
70198;BME280;57582;-34.876;138.628;2023-03-14T06:11:53;100651;;;29.96;21.14
70198;BME280;57582;-34.876;138.628;2023-03-14T06:14:54;100646;;;30.08;21.13
70198;BME280;57582;-34.876;138.628;2023-03-14T06:17:54;100648;;;30.11;22.15
70198;BME280;57582;-34.876;138.628;2023-03-14T06:20:54;100649;;;30.15;20.69
70198;BME280;57582;-34.876;138.628;2023-03-14T06:23:53;100653;;;30.04;19.12
70198;BME280;57582;-34.876;138.628;2023-03-14T06:26:54;100645;;;30.12;19.28
70198;BME280;57582;-34.876;138.628;2023-03-14T06:29:53;100647;;;30.17;20.97
70198;BME280;57582;-34.876;138.628;2023-03-14T06:32:53;100647;;;30.29;19.14
70198;BME280;57582;-34.876;138.628;2023-03-14T06:35:53;100642;;;30.43;18.98
70198;BME280;57582;-34.876;138.628;2023-03-14T06:38:54;100654;;;30.35;19.36
70198;BME280;57582;-34.876;138.628;2023-03-14T06:41:53;100661;;;30.34;19.62
70198;BME280;57582;-34.876;138.628;2023-03-14T06:44:53;100669;;;30.32;19.06
70198;BME280;57582;-34.876;138.628;2023-03-14T06:47:53;100669;;;30.42;19.47
70198;BME280;57582;-34.876;138.628;2023-03-14T06:50:55;100669;;;30.41;18.91
70198;BME280;57582;-34.876;138.628;2023-03-14T06:53:53;100659;;;30.48;19.13
70198;BME280;57582;-34.876;138.628;2023-03-14T06:56:53;100667;;;30.46;19.67
70198;BME280;57582;-34.876;138.628;2023-03-14T06:59:53;100660;;;30.54;19.22
70198;BME280;57582;-34.876;138.628;2023-03-14T07:02:54;100668;;;30.57;19.52
70198;BME280;57582;-34.876;138.628;2023-03-14T07:05:54;100662;;;30.50;21.53
70198;BME280;57582;-34.876;138.628;2023-03-14T07:08:53;100668;;;30.13;22.46
70198;BME280;57582;-34.876;138.628;2023-03-14T07:11:53;100669;;;30.01;22.71
70198;BME280;57582;-34.876;138.628;2023-03-14T07:14:54;100665;;;29.81;23.27
70198;BME280;57582;-34.876;138.628;2023-03-14T07:17:53;100645;;;29.65;23.58
70198;BME280;57582;-34.876;138.628;2023-03-14T07:20:53;100671;;;29.71;23.73
70198;BME280;57582;-34.876;138.628;2023-03-14T07:23:53;100670;;;29.70;25.00
70198;BME280;57582;-34.876;138.628;2023-03-14T07:26:54;100669;;;29.53;25.83
70198;BME280;57582;-34.876;138.628;2023-03-14T07:29:53;100680;;;29.53;26.08
70198;BME280;57582;-34.876;138.628;2023-03-14T07:32:54;100692;;;29.55;27.14
70198;BME280;57582;-34.876;138.628;2023-03-14T07:35:53;100690;;;29.37;27.84
70198;BME280;57582;-34.876;138.628;2023-03-14T07:38:54;100695;;;29.30;27.88
70198;BME280;57582;-34.876;138.628;2023-03-14T07:41:53;100715;;;29.18;29.02
70198;BME280;57582;-34.876;138.628;2023-03-14T07:44:54;100728;;;28.97;27.86
70198;BME280;57582;-34.876;138.628;2023-03-14T07:47:54;100730;;;28.80;28.36
70198;BME280;57582;-34.876;138.628;2023-03-14T07:50:54;100746;;;28.43;29.66
70198;BME280;57582;-34.876;138.628;2023-03-14T07:53:54;100733;;;28.14;29.99
70198;BME280;57582;-34.876;138.628;2023-03-14T07:56:54;100730;;;28.04;30.60
70198;BME280;57582;-34.876;138.628;2023-03-14T07:59:54;100727;;;28.02;31.85
70198;BME280;57582;-34.876;138.628;2023-03-14T08:02:54;100730;;;28.09;32.35
70198;BME280;57582;-34.876;138.628;2023-03-14T08:05:54;100727;;;28.16;31.69
70198;BME280;57582;-34.876;138.628;2023-03-14T08:08:54;100726;;;28.05;30.60
70198;BME280;57582;-34.876;138.628;2023-03-14T08:11:54;100722;;;27.89;29.86
70198;BME280;57582;-34.876;138.628;2023-03-14T08:14:54;100731;;;27.80;29.94
70198;BME280;57582;-34.876;138.628;2023-03-14T08:17:54;100732;;;27.74;30.63
70198;BME280;57582;-34.876;138.628;2023-03-14T08:20:54;100745;;;27.66;31.09
70198;BME280;57582;-34.876;138.628;2023-03-14T08:23:54;100740;;;27.56;30.75
70198;BME280;57582;-34.876;138.628;2023-03-14T08:26:54;100738;;;27.42;31.23
70198;BME280;57582;-34.876;138.628;2023-03-14T08:29:54;100737;;;27.22;32.39
70198;BME280;57582;-34.876;138.628;2023-03-14T08:32:54;100737;;;27.08;32.04
70198;BME280;57582;-34.876;138.628;2023-03-14T08:35:54;100741;;;26.98;31.81
70198;BME280;57582;-34.876;138.628;2023-03-14T08:38:54;100736;;;26.90;31.37
70198;BME280;57582;-34.876;138.628;2023-03-14T08:41:54;100736;;;26.77;31.17
70198;BME280;57582;-34.876;138.628;2023-03-14T08:44:54;100738;;;26.63;31.10
70198;BME280;57582;-34.876;138.628;2023-03-14T08:47:54;100750;;;26.48;30.32
70198;BME280;57582;-34.876;138.628;2023-03-14T08:50:55;100741;;;26.40;30.90
70198;BME280;57582;-34.876;138.628;2023-03-14T08:53:54;100737;;;26.30;31.04
70198;BME280;57582;-34.876;138.628;2023-03-14T08:56:54;100740;;;26.25;31.54
70198;BME280;57582;-34.876;138.628;2023-03-14T08:59:54;100741;;;26.19;31.87
70198;BME280;57582;-34.876;138.628;2023-03-14T09:02:54;100733;;;26.11;32.25
70198;BME280;57582;-34.876;138.628;2023-03-14T09:05:54;100745;;;26.05;32.66
70198;BME280;57582;-34.876;138.628;2023-03-14T09:08:54;100746;;;25.96;33.01
70198;BME280;57582;-34.876;138.628;2023-03-14T09:11:54;100744;;;25.85;33.71
70198;BME280;57582;-34.876;138.628;2023-03-14T09:14:55;100744;;;25.61;34.91
70198;BME280;57582;-34.876;138.628;2023-03-14T09:17:54;100758;;;25.48;35.57
70198;BME280;57582;-34.876;138.628;2023-03-14T09:20:54;100761;;;25.35;36.90
70198;BME280;57582;-34.876;138.628;2023-03-14T09:23:54;100768;;;25.22;37.92
70198;BME280;57582;-34.876;138.628;2023-03-14T09:26:55;100778;;;25.15;38.29
70198;BME280;57582;-34.876;138.628;2023-03-14T09:29:54;100779;;;25.15;39.17
70198;BME280;57582;-34.876;138.628;2023-03-14T09:32:54;100793;;;25.19;39.90
70198;BME280;57582;-34.876;138.628;2023-03-14T09:35:57;100790;;;25.19;40.66
70198;BME280;57582;-34.876;138.628;2023-03-14T09:38:54;100791;;;25.12;40.96
70198;BME280;57582;-34.876;138.628;2023-03-14T09:41:54;100786;;;25.25;41.07
70198;BME280;57582;-34.876;138.628;2023-03-14T09:47:54;100788;;;25.44;40.26
70198;BME280;57582;-34.876;138.628;2023-03-14T09:50:55;100783;;;25.50;40.40
70198;BME280;57582;-34.876;138.628;2023-03-14T09:53:54;100781;;;25.55;40.51
70198;BME280;57582;-34.876;138.628;2023-03-14T09:56:54;100783;;;25.58;40.64
70198;BME280;57582;-34.876;138.628;2023-03-14T09:59:56;100784;;;25.59;40.56
70198;BME280;57582;-34.876;138.628;2023-03-14T10:05:54;100792;;;25.60;40.73
70198;BME280;57582;-34.876;138.628;2023-03-14T10:08:54;100800;;;25.60;40.93
70198;BME280;57582;-34.876;138.628;2023-03-14T10:11:55;100795;;;25.52;41.11
70198;BME280;57582;-34.876;138.628;2023-03-14T10:14:55;100792;;;25.38;41.71
70198;BME280;57582;-34.876;138.628;2023-03-14T10:17:54;100791;;;25.36;41.45
70198;BME280;57582;-34.876;138.628;2023-03-14T10:23:54;100785;;;25.15;41.84
70198;BME280;57582;-34.876;138.628;2023-03-14T10:26:55;100777;;;25.04;42.02
70198;BME280;57582;-34.876;138.628;2023-03-14T10:29:55;100786;;;24.86;42.49
70198;BME280;57582;-34.876;138.628;2023-03-14T10:32:54;100789;;;24.73;42.81
70198;BME280;57582;-34.876;138.628;2023-03-14T10:38:58;100791;;;24.49;43.48
70198;BME280;57582;-34.876;138.628;2023-03-14T10:42:01;100803;;;24.43;43.52
70198;BME280;57582;-34.876;138.628;2023-03-14T10:44:55;100811;;;24.24;43.95
70198;BME280;57582;-34.876;138.628;2023-03-14T10:47:54;100815;;;24.17;44.48
70198;BME280;57582;-34.876;138.628;2023-03-14T10:50:57;100807;;;24.06;44.85
70198;BME280;57582;-34.876;138.628;2023-03-14T10:57:01;100818;;;23.92;44.71
70198;BME280;57582;-34.876;138.628;2023-03-14T10:59:55;100823;;;23.75;45.08
70198;BME280;57582;-34.876;138.628;2023-03-14T11:03:11;100828;;;23.65;45.37
70198;BME280;57582;-34.876;138.628;2023-03-14T11:11:54;100863;;;23.45;46.04
70198;BME280;57582;-34.876;138.628;2023-03-14T11:14:56;100863;;;23.37;46.22
70198;BME280;57582;-34.876;138.628;2023-03-14T11:23:58;100882;;;23.23;47.51
70198;BME280;57582;-34.876;138.628;2023-03-14T11:29:55;100888;;;23.13;48.29
70198;BME280;57582;-34.876;138.628;2023-03-14T11:36:10;100865;;;22.51;49.83
70198;BME280;57582;-34.876;138.628;2023-03-14T11:38:56;100878;;;21.96;50.91
70198;BME280;57582;-34.876;138.628;2023-03-14T11:41:54;100874;;;21.94;51.01
70198;BME280;57582;-34.876;138.628;2023-03-14T11:44:54;100855;;;21.71;51.21
70198;BME280;57582;-34.876;138.628;2023-03-14T11:48:03;100871;;;21.47;52.06
70198;BME280;57582;-34.876;138.628;2023-03-14T11:50:55;100874;;;21.31;52.46
70198;BME280;57582;-34.876;138.628;2023-03-14T11:56:57;100880;;;21.43;52.22
70198;BME280;57582;-34.876;138.628;2023-03-14T12:08:55;100876;;;20.84;53.67
70198;BME280;57582;-34.876;138.628;2023-03-14T12:11:56;100878;;;20.89;53.43
70198;BME280;57582;-34.876;138.628;2023-03-14T12:14:58;100882;;;20.93;53.56
70198;BME280;57582;-34.876;138.628;2023-03-14T12:17:54;100886;;;21.10;53.13
70198;BME280;57582;-34.876;138.628;2023-03-14T12:20:55;100892;;;21.22;52.58
70198;BME280;57582;-34.876;138.628;2023-03-14T12:23:55;100908;;;21.38;52.03
70198;BME280;57582;-34.876;138.628;2023-03-14T12:26:56;100907;;;21.47;51.90
70198;BME280;57582;-34.876;138.628;2023-03-14T12:29:58;100899;;;21.54;51.73
70198;BME280;57582;-34.876;138.628;2023-03-14T12:35:58;100884;;;20.77;53.92
70198;BME280;57582;-34.876;138.628;2023-03-14T12:39:00;100877;;;20.64;54.30
70198;BME280;57582;-34.876;138.628;2023-03-14T12:42:02;100859;;;20.51;54.77
70198;BME280;57582;-34.876;138.628;2023-03-14T12:45:13;100858;;;20.44;54.83
70198;BME280;57582;-34.876;138.628;2023-03-14T12:47:55;100853;;;20.26;55.60
70198;BME280;57582;-34.876;138.628;2023-03-14T12:50:56;100846;;;19.92;56.67
70198;BME280;57582;-34.876;138.628;2023-03-14T12:53:57;100854;;;19.70;57.13
70198;BME280;57582;-34.876;138.628;2023-03-14T12:59:57;100858;;;19.36;58.47
70198;BME280;57582;-34.876;138.628;2023-03-14T13:02:59;100852;;;19.31;59.41
70198;BME280;57582;-34.876;138.628;2023-03-14T13:05:55;100857;;;19.29;59.43
70198;BME280;57582;-34.876;138.628;2023-03-14T13:08:54;100857;;;19.05;60.27
70198;BME280;57582;-34.876;138.628;2023-03-14T13:11:56;100848;;;18.97;60.50
70198;BME280;57582;-34.876;138.628;2023-03-14T13:14:57;100834;;;19.01;60.25
70198;BME280;57582;-34.876;138.628;2023-03-14T13:17:55;100823;;;19.02;59.88
70198;BME280;57582;-34.876;138.628;2023-03-14T13:20:55;100817;;;19.12;59.40
70198;BME280;57582;-34.876;138.628;2023-03-14T13:24:02;100803;;;19.10;58.66
70198;BME280;57582;-34.876;138.628;2023-03-14T13:26:55;100797;;;19.04;58.90
70198;BME280;57582;-34.876;138.628;2023-03-14T13:29:54;100800;;;19.12;58.29
70198;BME280;57582;-34.876;138.628;2023-03-14T13:32:55;100810;;;19.18;57.86
70198;BME280;57582;-34.876;138.628;2023-03-14T13:38:58;100817;;;19.30;57.13
70198;BME280;57582;-34.876;138.628;2023-03-14T13:41:55;100816;;;19.28;56.59
70198;BME280;57582;-34.876;138.628;2023-03-14T13:44:55;100802;;;19.34;56.07
70198;BME280;57582;-34.876;138.628;2023-03-14T13:47:54;100800;;;19.38;55.67
70198;BME280;57582;-34.876;138.628;2023-03-14T13:50:56;100788;;;19.27;55.48
70198;BME280;57582;-34.876;138.628;2023-03-14T13:53:55;100780;;;19.30;55.20
70198;BME280;57582;-34.876;138.628;2023-03-14T13:57:02;100787;;;19.46;54.49
70198;BME280;57582;-34.876;138.628;2023-03-14T13:59:59;100790;;;19.78;53.64
70198;BME280;57582;-34.876;138.628;2023-03-14T14:02:55;100794;;;20.08;52.45
70198;BME280;57582;-34.876;138.628;2023-03-14T14:05:55;100790;;;20.31;51.35
70198;BME280;57582;-34.876;138.628;2023-03-14T14:08:55;100779;;;20.22;51.36
70198;BME280;57582;-34.876;138.628;2023-03-14T14:11:56;100768;;;19.91;52.09
70198;BME280;57582;-34.876;138.628;2023-03-14T14:14:57;100762;;;19.90;51.85
70198;BME280;57582;-34.876;138.628;2023-03-14T14:17:55;100761;;;19.79;51.97
70198;BME280;57582;-34.876;138.628;2023-03-14T14:20:54;100766;;;19.66;52.26
70198;BME280;57582;-34.876;138.628;2023-03-14T14:23:54;100768;;;19.71;52.06
70198;BME280;57582;-34.876;138.628;2023-03-14T14:30:00;100762;;;19.61;52.29
70198;BME280;57582;-34.876;138.628;2023-03-14T14:33:06;100769;;;19.62;52.18
70198;BME280;57582;-34.876;138.628;2023-03-14T14:35:56;100780;;;19.78;51.97
70198;BME280;57582;-34.876;138.628;2023-03-14T14:38:58;100780;;;19.95;51.02
70198;BME280;57582;-34.876;138.628;2023-03-14T14:41:54;100771;;;20.16;50.58
70198;BME280;57582;-34.876;138.628;2023-03-14T14:44:55;100758;;;20.21;50.30
70198;BME280;57582;-34.876;138.628;2023-03-14T14:47:55;100747;;;19.75;51.49
70198;BME280;57582;-34.876;138.628;2023-03-14T14:54:03;100733;;;19.63;51.92
70198;BME280;57582;-34.876;138.628;2023-03-14T14:56:54;100743;;;19.64;51.49
70198;BME280;57582;-34.876;138.628;2023-03-14T14:59:55;100742;;;19.82;50.54
70198;BME280;57582;-34.876;138.628;2023-03-14T15:02:55;100752;;;20.04;49.80
70198;BME280;57582;-34.876;138.628;2023-03-14T15:05:54;100748;;;20.32;49.70
70198;BME280;57582;-34.876;138.628;2023-03-14T15:08:54;100750;;;20.59;49.06
70198;BME280;57582;-34.876;138.628;2023-03-14T15:11:54;100756;;;20.84;48.71
70198;BME280;57582;-34.876;138.628;2023-03-14T15:14:55;100768;;;21.03;48.12
70198;BME280;57582;-34.876;138.628;2023-03-14T15:17:54;100770;;;21.21;47.23
70198;BME280;57582;-34.876;138.628;2023-03-14T15:20:54;100766;;;21.33;47.02
70198;BME280;57582;-34.876;138.628;2023-03-14T15:23:54;100773;;;21.44;47.16
70198;BME280;57582;-34.876;138.628;2023-03-14T15:26:56;100784;;;21.49;46.86
70198;BME280;57582;-34.876;138.628;2023-03-14T15:29:54;100773;;;21.56;46.66
70198;BME280;57582;-34.876;138.628;2023-03-14T15:32:54;100778;;;21.53;46.64
70198;BME280;57582;-34.876;138.628;2023-03-14T15:35:54;100782;;;21.52;46.98
70198;BME280;57582;-34.876;138.628;2023-03-14T15:38:55;100779;;;21.56;46.75
70198;BME280;57582;-34.876;138.628;2023-03-14T15:41:54;100774;;;21.58;46.86
70198;BME280;57582;-34.876;138.628;2023-03-14T15:44:54;100772;;;21.55;46.81
70198;BME280;57582;-34.876;138.628;2023-03-14T15:47:54;100774;;;21.57;46.81
70198;BME280;57582;-34.876;138.628;2023-03-14T15:50:56;100772;;;21.54;47.00
70198;BME280;57582;-34.876;138.628;2023-03-14T15:53:54;100761;;;21.55;47.22
70198;BME280;57582;-34.876;138.628;2023-03-14T15:56:55;100745;;;21.59;47.18
70198;BME280;57582;-34.876;138.628;2023-03-14T15:59:54;100728;;;21.57;47.03
70198;BME280;57582;-34.876;138.628;2023-03-14T16:02:55;100724;;;21.49;47.26
70198;BME280;57582;-34.876;138.628;2023-03-14T16:05:54;100728;;;21.42;47.48
70198;BME280;57582;-34.876;138.628;2023-03-14T16:08:54;100727;;;21.44;47.35
70198;BME280;57582;-34.876;138.628;2023-03-14T16:11:54;100722;;;21.41;47.51
70198;BME280;57582;-34.876;138.628;2023-03-14T16:14:55;100719;;;21.38;47.59
70198;BME280;57582;-34.876;138.628;2023-03-14T16:17:54;100725;;;21.35;47.87
70198;BME280;57582;-34.876;138.628;2023-03-14T16:20:56;100727;;;21.36;47.77
70198;BME280;57582;-34.876;138.628;2023-03-14T16:23:54;100731;;;21.30;47.91
70198;BME280;57582;-34.876;138.628;2023-03-14T16:26:55;100724;;;21.26;48.05
70198;BME280;57582;-34.876;138.628;2023-03-14T16:29:54;100734;;;21.23;48.22
70198;BME280;57582;-34.876;138.628;2023-03-14T16:32:54;100731;;;21.12;48.45
70198;BME280;57582;-34.876;138.628;2023-03-14T16:35:55;100732;;;21.08;48.62
70198;BME280;57582;-34.876;138.628;2023-03-14T16:38:55;100727;;;21.05;48.54
70198;BME280;57582;-34.876;138.628;2023-03-14T16:41:54;100723;;;20.96;48.87
70198;BME280;57582;-34.876;138.628;2023-03-14T16:44:54;100725;;;20.94;48.93
70198;BME280;57582;-34.876;138.628;2023-03-14T16:47:54;100732;;;20.92;49.05